x

Pensacola - 115nm Ese Of Pensacola, Fl (42039) Wave Buoy

6:50am - Mon 20th Feb 2017 All times are CST. -6 hours from GMT.

  • Sig Wave height 1.3ft
  • Swell Direction
  • Peak Period 6s
  • Average Period 5s
  • Wind
    9mph
  • Sea Temp 70°f
  • Air Temp 70°f
  • Sea Pressure 1020mb
  • Pensacola - 115nm Ese Of Pensacola, Fl
  • Pensacola - 115nm Ese Of Pensacola, Fl

More Historic Weather Station data

Upgrade to MSW Pro to gain access to the past 30 days of data for over 8000 Wavebouys and Weather Stations around the globe.

Join Pro

Comparision Forecast

View Surf forecast
   
Mon 02/20 6:50am 1.3ft 6s 5s 9
mph
1020mb 70f 70f
5:50am 1.3ft 6s 5s 4
mph
1019.7mb 70f 70f
4:50am 1.3ft 5s 5s 4
mph
1019.6mb 71f 70f
3:50am 1.6ft 6s 5s 4 7 mph 1018.8mb 71f 70f
2:50am 1.3ft 6s 5s 7 9 mph 1018.3mb 70f 70f
1:50am 1.6ft 6s 5s 7
mph
1018.6mb 71f 69f
12:50am 1.6ft 6s 5s 7 9 mph 1019.1mb 71f 70f
Sun 02/19 11:50pm 1.6ft 6s 5s 4 7 mph 1019.4mb 71f 70f
10:50pm 1.6ft 6s 5s 7
mph
1019.9mb 71f 70f
9:50pm 1.6ft 6s 5s 7 9 mph 1019.6mb 71f 70f
8:50pm 1.6ft 6s 5s 7
mph
1019.3mb 71f 70f
7:50pm 1.6ft 6s 5s 7
mph
1019.1mb 71f 70f
6:50pm 1.6ft 5s 5s 4
mph
1019mb 71f 70f
5:50pm 1.6ft 6s 5s 4 7 mph 1019mb 71f 70f
4:50pm 1.6ft 7s 5s 4 7 mph 1018.6mb 71f 70f
3:50pm 1.6ft 6s 5s 9
mph
1018.3mb 72f 71f
2:50pm 2ft 6s 5s 4
mph
1018.5mb 72f 71f
1:50pm 2ft 5s 5s 7 9 mph 1018.1mb 72f 71f
12:50pm 2ft 6s 5s 7
mph
1018.6mb 72f 71f
11:50am 2ft 5s 4s 4 7 mph 1019.2mb 71f 70f
10:50am 2.5ft 5s 4s 4 7 mph 1019.5mb 71f 71f
9:50am 2.5ft 5s 4s 2 4 mph 1019.4mb 71f 72f
8:50am 2.5ft 5s 4s 2
mph
1018.7mb 70f 71f
7:50am 2ft 5s 4s 2
mph
1018.2mb 70f 70f
6:50am 2.5ft 5s 5s 2 4 mph 1017.5mb 70f 71f
5:50am 2.5ft 5s 5s 4
mph
1016.8mb 70f 70f
4:50am 2.5ft 5s 5s 2
mph
1016.3mb 70f 70f
3:50am 3ft 5s 5s 2
mph
1015.8mb 70f 70f
2:50am 3ft 6s 5s 2 4 mph 1015.8mb 70f 70f
1:50am 3ft 5s 5s 4
mph
1015.8mb 70f 70f
12:50am 2.5ft 5s 5s 2
mph
1016mb 70f 70f
Sat 02/18 11:50pm 2.5ft 5s 5s 4
mph
1016.2mb 70f 70f
10:50pm 2.5ft 5s 4s 9
mph
1016.3mb 70f 70f
9:50pm 3ft 5s 5s 7
mph
1016.1mb 70f 71f
8:50pm 2.5ft 6s 5s 2 4 mph 1015.4mb 70f 71f
7:50pm 3ft 5s 5s 4
mph
1015.4mb 71f 71f
6:50pm 3.5ft 5s 4s 7 9 mph 1014.7mb 71f 71f
5:50pm 3ft 6s 4s 9 11 mph 1014.2mb 71f 71f
4:50pm 3.5ft 5s 4s 11
mph
1013.6mb 71f 71f
3:50pm 3.5ft 6s 4s 13 16 mph 1013.3mb 71f 71f
2:50pm 4ft 6s 5s 13 16 mph 1013.1mb 71f 71f
1:50pm 4ft 6s  -  16 18 mph 1013.3mb 71f 71f
12:50pm 4ft 6s 5s 16 18 mph 1013.5mb 71f 72f
11:50am 4ft 6s 4s 11 13 mph 1013.9mb 71f 72f
10:50am 4.5ft 6s 5s 13 18 mph 1014.1mb 71f 71f
9:50am 4ft 6s 4s 20 22 mph 1013.8mb 70f 69f
8:50am 3.5ft 5s 4s 18 20 mph 1013.7mb 70f 69f
7:50am 3.5ft 5s 4s 9 13 mph 1016mb 70f 67f
6:50am 3.5ft 5s 4s 9 11 mph 1015.4mb 70f 66f
5:50am 3ft 4s 4s 4 7 mph 1015.3mb 70f 66f
4:50am 2.5ft 3s 3s 25 29 mph 1011.5mb 70f 68f
3:50am 1.6ft 3s 3s 25 29 mph 1010.9mb 70f 67f
2:50am 1.3ft 3s 3s 16 20 mph 1012.7mb 70f 67f
1:50am 1.3ft 3s 3s 9 11 mph 1015.3mb 70f 68f
12:50am 1.3ft 3s 3s 7 11 mph 1015.8mb 70f 69f
Fri 02/17 11:50pm 1.3ft 3s 3s 11 16 mph 1016.6mb 70f 69f
10:50pm 1.3ft 3s 3s 11 13 mph 1016.6mb 70f 68f
9:50pm 1ft 5s 3s 11 13 mph 1016.4mb 70f 68f
8:50pm 1ft 6s 4s 11 16 mph 1016.9mb 70f 68f
7:50pm 0.7ft  -  4s 9 13 mph 1017mb 70f 67f
6:50pm 0.7ft  -  5s 9 11 mph 1016.9mb 71f 67f
5:50pm 1ft 6s 5s 4 7 mph 1017.3mb 71f 67f
4:50pm 1ft 6s 5s 4 9 mph 1017.2mb 71f 66f
3:50pm 1ft 6s 5s 4 7 mph 1017.7mb 71f 67f
2:50pm 1ft 6s 5s 4 7 mph 1017.5mb 71f 66f
1:50pm 1ft 6s 5s 4 7 mph 1018.3mb 71f 66f
12:50pm 1ft 6s 5s 7 9 mph 1019mb 72f 66f
11:50am 1ft 6s 5s 4 7 mph 1019.7mb 71f 65f
10:50am 1.3ft 6s 5s 4 7 mph 1020.5mb 71f 65f
9:50am 1.3ft 6s 5s 2 4 mph 1020.5mb 71f 66f
8:50am 1.3ft 7s 5s  -  2 mph 1020.5mb 71f 67f
7:50am 1.3ft 7s 5s  -  4 mph 1020.5mb 70f 67f
6:50am 1.3ft 7s 5s 2
mph
1019.9mb 70f 64f
5:50am 1.3ft 7s 5s  -  4 mph 1019.4mb 70f 63f
4:50am 1.3ft 7s 5s 4
mph
1019mb 70f 63f
3:50am 1.3ft 7s 5s 2 4 mph 1018.5mb 70f 63f
2:50am 1.6ft 7s 5s 2 4 mph 1018.2mb 70f 63f
1:50am 1.6ft 7s 5s 4 9 mph 1019mb 70f 63f
12:50am 1.6ft 8s 5s 4 7 mph 1019.1mb 70f 62f
Thu 02/16 11:50pm 1.6ft 8s 4s 2 4 mph 1019mb 70f 62f
10:50pm 2.5ft 8s 5s 4 7 mph 1019.1mb 70f 62f
9:50pm 2.5ft 8s 5s 7 9 mph 1019.4mb 70f 62f
8:50pm 2.5ft 5s 5s 7 9 mph 1019.2mb 70f 62f
7:50pm 2.5ft 6s 5s 7 9 mph 1019.4mb 70f 61f
6:50pm 3ft 5s 5s 7 11 mph 1019.1mb 70f 61f
5:50pm 3.5ft 6s 5s 9 11 mph 1018.6mb 71f 61f
4:50pm 3.5ft 6s 5s 9 13 mph 1018.2mb 71f 61f
3:50pm 4ft 5s 5s 9 13 mph 1018.3mb 71f 61f
2:50pm 4.5ft 6s 5s 9 13 mph 1018mb 71f 60f